Time;durP1;ratioP1;P1;durP2;ratioP2;P2;SDS_P1;SDS_P2;PMS_P1;PMS_P2;Temp;Humidity;BMP_temperature;BMP_pressure;BME280_temperature;BME280_humidity;BME280_pressure;Samples;Min_cycle;Max_cycle;Signal;HPM_P1;HPM_P2
2022/12/13 00:01:57;;;;;;;2.42;1.58;;;;;;;3.96;100.00;96224.41;5064048;28;20474;-54
2022/12/13 00:04:24;;;;;;;2.08;1.70;;;;;;;4.02;100.00;96211.25;5063168;28;20053;-54
2022/12/13 00:06:52;;;;;;;2.78;1.33;;;;;;;3.89;100.00;96185.84;5063711;28;20480;-55
2022/12/13 00:09:20;;;;;;;2.95;1.70;;;;;;;3.88;100.00;96208.91;5064227;28;20135;-54
2022/12/13 00:11:48;;;;;;;3.08;1.90;;;;;;;3.88;100.00;96208.91;5062698;28;20041;-54
2022/12/13 00:14:15;;;;;;;8.82;3.92;;;;;;;3.84;100.00;96205.25;5064107;28;20140;-54
2022/12/13 00:16:47;;;;;;;7.22;4.60;;;;;;;3.84;100.00;96207.22;5062229;28;20123;-54
2022/12/13 00:19:15;;;;;;;26.73;12.32;;;;;;;3.94;100.00;96199.31;5063956;28;20147;-56
2022/12/13 00:21:42;;;;;;;3.75;2.20;;;;;;;3.79;100.00;96202.78;5063629;28;20135;-54
2022/12/13 00:24:08;;;;;;;4.72;2.92;;;;;;;3.80;100.00;96218.06;5063846;28;20044;-56
2022/12/13 00:26:35;;;;;;;3.17;2.08;;;;;;;3.80;100.00;96203.56;5062433;28;20088;-54
2022/12/13 00:29:04;;;;;;;3.40;2.05;;;;;;;3.75;100.00;96207.34;5063697;28;20983;-53
2022/12/13 00:31:31;;;;;;;2.33;1.83;;;;;;;3.75;100.00;96207.34;5063536;28;20162;-53
2022/12/13 00:34:18;;;;;;;2.70;1.48;;;;;;;3.74;100.00;96205.75;5062564;28;20068;-53
2022/12/13 00:36:45;;;;;;;6.75;3.80;;;;;;;3.89;100.00;96196.03;5063828;28;20080;-52
2022/12/13 00:39:12;;;;;;;6.68;3.85;;;;;;;4.03;100.00;96202.69;5061514;28;20644;-53
2022/12/13 00:41:40;;;;;;;6.18;3.10;;;;;;;4.16;100.00;96211.63;5066511;28;20439;-53
2022/12/13 00:44:06;;;;;;;3.88;2.22;;;;;;;4.08;100.00;96194.22;5066113;28;20049;-54
2022/12/13 00:46:33;;;;;;;6.13;1.90;;;;;;;4.37;100.00;96223.19;5066227;28;20162;-53
2022/12/13 00:49:00;;;;;;;2.92;1.33;;;;;;;4.37;100.00;96218.53;5066352;28;20101;-53
2022/12/13 00:51:29;;;;;;;2.20;1.50;;;;;;;4.16;100.00;96212.44;5067884;28;20052;-53
2022/12/13 00:53:56;;;;;;;2.22;1.50;;;;;;;4.01;100.00;96183.06;5066000;28;20095;-53
2022/12/13 00:56:26;;;;;;;5.32;2.20;;;;;;;4.50;100.00;96227.47;5067290;28;20143;-53
2022/12/13 00:58:54;;;;;;;5.05;2.22;;;;;;;4.54;100.00;96229.16;5067622;28;20365;-53
2022/12/13 01:01:23;;;;;;;2.25;1.83;;;;;;;4.29;100.00;96211.25;5067407;28;20055;-53
2022/12/13 01:03:52;;;;;;;4.40;2.88;;;;;;;4.28;100.00;96220.59;5067498;28;20052;-54
2022/12/13 01:06:24;;;;;;;5.85;3.47;;;;;;;4.50;100.00;96228.25;5067028;28;20155;-55
2022/12/13 01:08:53;;;;;;;2.97;2.05;;;;;;;4.28;100.00;96220.59;5067987;28;20474;-54
2022/12/13 01:11:20;;;;;;;2.90;2.50;;;;;;;4.30;100.00;96228.50;5067195;28;20582;-54
2022/12/13 01:13:46;;;;;;;2.33;1.83;;;;;;;4.27;100.00;96229.16;5067240;28;20526;-55
2022/12/13 01:16:13;;;;;;;2.55;1.63;;;;;;;3.96;100.00;96185.25;5067195;28;20471;-55
2022/12/13 01:18:40;;;;;;;3.33;1.95;;;;;;;3.24;100.00;96060.38;5067244;28;20083;-55
2022/12/13 01:21:12;;;;;;;4.72;1.73;;;;;;;4.19;100.00;96236.41;5067136;28;20084;-56
2022/12/13 01:23:40;;;;;;;5.47;2.65;;;;;;;3.76;100.00;96159.63;5066997;28;20048;-54
2022/12/13 01:26:10;;;;;;;7.00;3.38;;;;;;;4.24;100.00;96229.88;5065645;28;20135;-55
2022/12/13 01:28:36;;;;;;;6.55;3.30;;;;;;;4.18;100.00;96242.25;5066957;28;20552;-55
2022/12/13 01:31:06;;;;;;;4.10;2.25;;;;;;;3.95;100.00;96206.34;5067261;28;20136;-54
2022/12/13 01:33:34;;;;;;;7.72;3.00;;;;;;;4.03;100.00;96216.38;5046749;28;20056;-53
2022/12/13 01:36:07;;;;;;;4.68;2.42;;;;;;;4.06;100.00;96237.59;5046860;28;20155;-53
2022/12/13 01:38:34;;;;;;;8.38;4.43;;;;;;;4.07;100.00;96241.94;5047251;28;20789;-54
2022/12/13 01:41:05;;;;;;;2.90;1.60;;;;;;;3.93;100.00;96241.53;5047044;28;20474;-53
2022/12/13 01:43:43;;;;;;;2.63;1.45;;;;;;;3.88;100.00;96252.75;5047028;28;20136;-53
2022/12/13 01:46:11;;;;;;;2.45;1.35;;;;;;;3.85;100.00;96245.22;5046994;28;20132;-55
2022/12/13 01:48:46;;;;;;;2.70;1.83;;;;;;;3.74;100.00;96249.59;5046608;28;20060;-55
2022/12/13 01:51:16;;;;;;;4.32;2.40;;;;;;;3.74;100.00;96249.59;5046363;28;20084;-55
2022/12/13 01:53:47;;;;;;;3.72;2.30;;;;;;;3.62;100.00;96235.91;5044205;28;20098;-55
2022/12/13 01:56:22;;;;;;;6.32;3.63;;;;;;;3.39;100.00;96214.84;5046511;28;20527;-55
2022/12/13 01:58:51;;;;;;;6.57;3.67;;;;;;;3.48;100.00;96202.63;5045059;28;20092;-54
2022/12/13 02:01:17;;;;;;;3.03;1.40;;;;;;;3.03;100.00;96136.38;5046364;28;20111;-54
2022/12/13 02:03:44;;;;;;;5.50;3.13;;;;;;;3.85;100.00;96256.16;5046437;28;20049;-54
2022/12/13 02:06:25;;;;;;;3.10;2.28;;;;;;;3.99;100.00;96250.31;5046483;28;20114;-55
2022/12/13 02:08:52;;;;;;;2.58;2.25;;;;;;;3.94;100.00;96262.31;5044670;28;20139;-53
2022/12/13 02:11:18;;;;;;;3.88;2.50;;;;;;;3.94;100.00;96256.81;5046240;28;20065;-55
2022/12/13 02:13:45;;;;;;;5.68;4.22;;;;;;;4.01;100.00;96262.53;5061158;28;20061;-53
2022/12/13 02:16:30;;;;;;;1.90;1.70;;;;;;;4.16;100.00;96261.78;5046278;28;20119;-56
2022/12/13 02:19:35;;;;;;;2.17;1.05;;;;;;;4.24;99.91;96269.06;5046141;28;20055;-53
2022/12/13 02:22:39;;;;;;;2.70;1.83;;;;;;;4.28;99.29;96277.38;5045780;28;20053;-53
2022/12/13 02:25:27;;;;;;;;;;;;;;;4.30;100.00;96283.31;5017569;28;20172;-53
2022/12/13 02:28:03;;;;;;;3.70;1.90;;;;;;;4.11;98.85;96275.72;5045763;28;19929;-53
2022/12/13 02:30:57;;;;;;;3.50;1.63;;;;;;;4.02;100.00;96288.78;5044054;28;20056;-52
2022/12/13 02:33:30;;;;;;;5.30;2.28;;;;;;;4.16;100.00;96291.91;5063926;28;20056;-53
2022/12/13 02:36:02;;;;;;;2.00;1.80;;;;;;;4.27;99.22;96292.22;5064419;28;20131;-56
2022/12/13 02:38:52;;;;;;;5.15;2.58;;;;;;;3.62;99.26;96186.63;5065281;28;20577;-54
2022/12/13 02:41:25;;;;;;;2.45;2.00;;;;;;;4.28;100.00;96291.88;5065408;28;20052;-54
2022/12/13 02:43:57;;;;;;;3.60;2.20;;;;;;;4.37;99.87;96295.28;5065504;28;20155;-54
2022/12/13 02:46:32;;;;;;;4.43;2.88;;;;;;;4.15;99.86;96262.94;5064061;28;20066;-53
2022/12/13 02:49:00;;;;;;;4.20;2.22;;;;;;;4.42;100.00;96291.47;5065408;28;20380;-54
2022/12/13 02:51:28;;;;;;;5.28;2.63;;;;;;;4.40;100.00;96293.78;5064872;28;20426;-53
2022/12/13 02:53:55;;;;;;;4.63;2.63;;;;;;;4.43;97.96;96291.13;5065200;28;20562;-54
2022/12/13 02:56:22;;;;;;;5.20;2.63;;;;;;;4.17;97.26;96268.84;5062205;28;20076;-53
2022/12/13 02:58:53;;;;;;;6.97;2.97;;;;;;;4.40;95.97;96305.53;5065288;28;20052;-53
2022/12/13 03:01:35;;;;;;;16.98;7.22;;;;;;;4.45;95.75;96294.34;5065081;28;20066;-54
2022/12/13 03:08:06;;;;;;;7.65;3.85;;;;;;;4.54;95.78;96303.19;4829734;28;5001030;-54
2022/12/13 03:11:10;;;;;;;4.15;2.60;;;;;;;4.57;95.72;96298.94;4998549;28;20625;-53
2022/12/13 03:13:49;;;;;;;5.60;2.87;;;;;;;4.52;96.52;96285.50;5064756;28;20118;-53
2022/12/13 03:16:35;;;;;;;4.75;2.72;;;;;;;4.60;97.49;96304.53;5064618;28;20519;-54
2022/12/13 03:19:04;;;;;;;8.80;3.20;;;;;;;4.65;95.73;96309.78;5064573;28;20576;-55
2022/12/13 03:21:44;;;;;;;4.05;2.42;;;;;;;4.73;95.26;96308.00;5064540;28;20495;-54
2022/12/13 03:24:19;;;;;;;4.38;2.58;;;;;;;4.65;93.88;96308.97;5064767;28;20048;-55
2022/12/13 03:26:47;;;;;;;5.00;2.78;;;;;;;4.31;93.96;96252.81;5064601;28;20121;-56
2022/12/13 03:29:14;;;;;;;3.22;2.45;;;;;;;4.04;92.49;96242.66;5064623;28;20076;-55
2022/12/13 03:31:51;;;;;;;4.00;2.72;;;;;;;4.58;92.56;96306.81;5064332;28;20443;-54
2022/12/13 03:34:17;;;;;;;3.70;2.70;;;;;;;4.56;92.13;96320.09;5064229;28;20507;-54
2022/12/13 03:36:48;;;;;;;5.47;3.38;;;;;;;4.20;94.03;96246.25;5062716;28;20049;-54
2022/12/13 03:39:15;;;;;;;6.78;3.40;;;;;;;4.18;94.65;96248.53;5063133;28;20110;-56
2022/12/13 03:41:42;;;;;;;5.35;3.08;;;;;;;4.58;95.05;96304.06;5063242;28;20084;-54
2022/12/13 03:44:08;;;;;;;6.55;3.30;;;;;;;4.61;93.63;96311.63;5064668;28;20131;-53
2022/12/13 03:46:35;;;;;;;6.18;4.00;;;;;;;4.71;95.76;96312.28;5064165;28;21317;-53
2022/12/13 03:49:02;;;;;;;4.82;3.05;;;;;;;4.74;95.75;96317.06;5064031;28;20075;-53
2022/12/13 03:51:29;;;;;;;5.82;3.42;;;;;;;4.71;93.93;96317.75;5063542;28;20091;-53
2022/12/13 03:53:56;;;;;;;5.35;2.72;;;;;;;4.59;95.92;96316.66;5064218;28;20052;-55
2022/12/13 03:56:22;;;;;;;4.72;2.38;;;;;;;4.51;93.70;96312.13;5062631;28;20052;-53
2022/12/13 03:58:49;;;;;;;4.53;2.90;;;;;;;4.46;93.30;96309.63;5063844;28;20080;-55
2022/12/13 04:01:16;;;;;;;4.50;2.58;;;;;;;4.47;93.83;96305.72;5062694;28;20118;-55
2022/12/13 04:03:45;;;;;;;6.72;3.83;;;;;;;4.49;94.00;96314.41;5064463;28;20973;-53
2022/12/13 04:06:12;;;;;;;6.32;3.75;;;;;;;4.31;94.87;96318.59;5063938;28;20052;-58
2022/12/13 04:08:49;;;;;;;4.47;2.65;;;;;;;4.38;96.92;96321.53;5063794;28;20587;-57
2022/12/13 04:14:08;;;;;;;4.90;2.67;;;;;;;4.39;95.60;96287.47;5064168;28;20052;-55
2022/12/13 04:16:35;;;;;;;3.63;2.47;;;;;;;4.47;95.37;96305.72;5063999;28;20161;-53
2022/12/13 04:19:02;;;;;;;4.35;2.85;;;;;;;4.41;95.51;96311.84;5064187;28;20281;-55
2022/12/13 04:21:28;;;;;;;4.80;2.67;;;;;;;4.35;94.56;96292.06;5063716;28;20511;-55
2022/12/13 04:23:55;;;;;;;3.55;2.13;;;;;;;3.84;92.69;96254.56;5063891;28;20131;-56
2022/12/13 04:26:27;;;;;;;8.40;3.05;;;;;;;4.19;94.50;96293.16;5063709;28;20056;-55
2022/12/13 04:28:53;;;;;;;6.75;3.88;;;;;;;4.26;96.00;96310.63;5063527;28;20142;-56
2022/12/13 04:31:20;;;;;;;17.27;8.05;;;;;;;4.16;95.33;96322.06;5064256;28;20049;-54
2022/12/13 04:33:47;;;;;;;10.55;5.50;;;;;;;4.11;96.45;96297.63;5063761;28;20064;-54
2022/12/13 04:36:18;;;;;;;8.20;4.28;;;;;;;4.06;95.42;96306.09;5063898;28;20044;-56
2022/12/13 04:38:59;;;;;;;7.55;4.03;;;;;;;4.11;96.32;96314.06;5062822;28;20139;-56
2022/12/13 04:41:27;;;;;;;8.13;3.58;;;;;;;4.07;96.40;96318.66;5063901;28;20129;-54
2022/12/13 04:44:01;;;;;;;6.97;3.40;;;;;;;3.67;97.51;96246.63;5064048;28;20053;-56
2022/12/13 04:46:27;;;;;;;7.20;4.15;;;;;;;4.17;96.62;96318.16;5063321;28;20041;-55
2022/12/13 04:48:54;;;;;;;8.30;4.68;;;;;;;4.21;97.63;96318.28;5062449;28;20196;-54
2022/12/13 04:51:20;;;;;;;16.73;9.07;;;;;;;4.05;96.62;96315.47;5063426;28;20131;-55
2022/12/13 04:53:47;;;;;;;17.20;8.77;;;;;;;4.10;96.30;96300.72;5063466;28;20048;-55
2022/12/13 04:56:14;;;;;;;15.75;8.40;;;;;;;4.31;95.39;96335.06;5063831;28;20044;-55
2022/12/13 04:58:40;;;;;;;8.77;5.32;;;;;;;3.90;93.97;96279.78;5063322;28;20141;-56
2022/12/13 05:01:10;;;;;;;7.30;4.32;;;;;;;4.38;91.81;96361.84;5063805;28;20131;-54
2022/12/13 05:03:38;;;;;;;5.72;3.85;;;;;;;4.23;91.33;96346.94;5061903;28;20497;-55
2022/12/13 05:06:10;;;;;;;7.15;3.83;;;;;;;4.20;90.83;96361.34;5063788;28;20056;-55
2022/12/13 05:08:53;;;;;;;8.73;4.68;;;;;;;4.14;90.49;96362.72;5063466;28;20041;-56
2022/12/13 05:11:19;;;;;;;99.00;33.80;;;;;;;4.08;91.10;96358.63;5063188;28;20584;-55
2022/12/13 05:13:48;;;;;;;32.38;13.00;;;;;;;4.08;90.37;96364.09;5062974;28;20503;-56
2022/12/13 05:16:15;;;;;;;18.83;9.65;;;;;;;3.95;90.20;96370.72;5063528;28;20155;-53
2022/12/13 05:18:41;;;;;;;24.83;12.40;;;;;;;3.74;92.18;96378.28;5063643;28;20488;-54
2022/12/13 05:21:10;;;;;;;8.38;5.70;;;;;;;3.76;94.45;96362.28;5063372;28;20127;-54
2022/12/13 05:23:39;;;;;;;7.30;5.05;;;;;;;3.87;94.95;96379.88;5063216;28;20135;-54
2022/12/13 05:26:05;;;;;;;9.27;3.90;;;;;;;3.08;93.95;96279.16;5063545;28;20131;-54
2022/12/13 05:28:32;;;;;;;9.35;4.00;;;;;;;3.47;95.15;96353.53;5066127;28;20052;-54
2022/12/13 05:31:08;;;;;;;13.25;7.03;;;;;;;3.68;95.43;96393.38;5067252;28;20053;-54
2022/12/13 05:33:52;;;;;;;7.75;5.18;;;;;;;3.64;92.53;96392.44;5047015;28;20068;-55
2022/12/13 05:36:21;;;;;;;11.05;6.88;;;;;;;3.07;93.17;96323.25;5047370;28;20049;-55
2022/12/13 05:38:48;;;;;;;13.02;7.38;;;;;;;3.48;94.42;96393.47;5045630;28;20045;-54
2022/12/13 05:41:18;;;;;;;9.27;5.30;;;;;;;3.52;92.65;96395.19;5045543;28;20099;-55
2022/12/13 05:43:44;;;;;;;10.65;3.65;;;;;;;3.33;93.41;96391.38;5046517;28;20671;-53
2022/12/13 05:46:11;;;;;;;138.10;48.13;;;;;;;3.35;94.79;96409.03;5046926;28;20550;-54
2022/12/13 05:48:39;;;;;;;28.40;13.68;;;;;;;3.35;95.81;96405.53;5046744;28;20450;-54
2022/12/13 05:51:06;;;;;;;17.77;10.07;;;;;;;3.35;95.12;96400.84;5044546;28;20135;-54
2022/12/13 05:53:38;;;;;;;20.05;11.35;;;;;;;3.40;95.49;96403.34;5046093;28;20068;-54
2022/12/13 05:56:06;;;;;;;24.05;12.95;;;;;;;3.36;95.28;96396.97;5046492;28;20065;-57
2022/12/13 05:58:32;;;;;;;17.38;8.57;;;;;;;2.40;92.89;96270.94;5045047;28;20053;-55
2022/12/13 06:01:10;;;;;;;14.88;7.15;;;;;;;3.07;94.86;96416.28;5044832;28;20049;-55
2022/12/13 06:03:38;;;;;;;8.70;5.53;;;;;;;2.84;96.50;96396.72;5046268;28;20103;-54
2022/12/13 06:06:07;;;;;;;13.15;6.85;;;;;;;2.96;95.71;96420.56;5046330;28;20111;-55
2022/12/13 06:08:34;;;;;;;10.30;4.20;;;;;;;2.88;95.03;96410.50;5046119;28;20094;-56
2022/12/13 06:11:02;;;;;;;10.15;5.80;;;;;;;3.01;92.84;96434.03;5045829;28;20049;-53
2022/12/13 06:13:37;;;;;;;10.77;5.53;;;;;;;2.79;93.44;96456.28;5046000;28;20164;-54
2022/12/13 06:16:11;;;;;;;14.07;6.45;;;;;;;2.87;94.85;96456.22;5045355;28;20049;-55
2022/12/13 06:18:51;;;;;;;9.07;4.97;;;;;;;2.83;93.67;96449.81;5045684;28;20048;-55
2022/12/13 06:21:29;;;;;;;12.55;5.72;;;;;;;2.85;93.95;96453.00;5045792;28;20578;-55
2022/12/13 06:24:11;;;;;;;16.63;6.88;;;;;;;2.70;91.92;96452.84;5045717;28;20048;-55
2022/12/13 06:26:38;;;;;;;15.77;7.18;;;;;;;2.94;91.85;96472.09;5044399;28;20128;-54
2022/12/13 06:29:04;;;;;;;13.90;7.50;;;;;;;2.98;92.22;96467.53;5045555;28;20078;-55
2022/12/13 06:31:31;;;;;;;8.63;5.63;;;;;;;2.96;88.77;96469.81;5046769;28;20052;-56
2022/12/13 06:34:04;;;;;;;12.85;5.95;;;;;;;3.03;88.09;96481.03;5065439;28;20133;-53
2022/12/13 06:36:41;;;;;;;14.88;5.20;;;;;;;3.04;86.30;96488.06;5065840;28;20090;-56
2022/12/13 06:39:07;;;;;;;19.67;7.57;;;;;;;3.04;85.41;96493.56;5065269;28;20493;-55
2022/12/13 06:41:35;;;;;;;24.50;7.13;;;;;;;3.02;85.18;96495.81;5065511;28;20056;-54
2022/12/13 06:44:02;;;;;;;27.33;8.38;;;;;;;2.64;85.83;96452.22;5065781;28;20067;-54
2022/12/13 06:46:29;;;;;;;19.60;8.43;;;;;;;3.03;85.68;96508.38;5064260;28;20474;-55
2022/12/13 06:48:56;;;;;;;22.13;8.95;;;;;;;3.09;85.61;96515.22;5065688;28;20523;-53
2022/12/13 06:51:22;;;;;;;15.15;7.65;;;;;;;3.17;84.72;96517.09;5065535;28;20044;-55
2022/12/13 06:53:58;;;;;;;11.52;6.25;;;;;;;3.13;85.35;96513.41;5065493;28;20060;-55
2022/12/13 06:56:27;;;;;;;8.50;4.63;;;;;;;3.18;85.97;96507.75;5065011;28;20056;-54
2022/12/13 06:58:53;;;;;;;18.30;8.43;;;;;;;3.12;83.89;96522.75;5064440;28;20076;-54
2022/12/13 07:01:29;;;;;;;11.85;6.57;;;;;;;2.70;84.60;96461.03;5064829;28;20079;-54
2022/12/13 07:04:03;;;;;;;15.30;9.95;;;;;;;3.33;84.41;96529.03;5065199;28;20225;-54
2022/12/13 07:06:29;;;;;;;15.60;8.50;;;;;;;2.89;82.67;96480.50;5059991;28;20408;-54
2022/12/13 07:08:56;;;;;;;25.42;12.02;;;;;;;3.25;84.00;96499.78;5062491;28;20056;-58
2022/12/13 07:11:26;;;;;;;40.70;20.88;;;;;;;1.37;81.37;96184.50;5063780;28;20056;-54
2022/12/13 07:13:54;;;;;;;26.15;13.55;;;;;;;3.38;81.17;96525.28;5063408;28;20155;-56
2022/12/13 07:16:22;;;;;;;16.98;8.75;;;;;;;3.48;82.53;96530.34;5063089;28;20511;-55
2022/12/13 07:18:59;;;;;;;22.17;13.20;;;;;;;2.60;83.69;96371.22;5044202;28;20118;-57
2022/12/13 07:21:28;;;;;;;19.15;12.13;;;;;;;2.75;81.65;96384.28;5046363;28;20068;-61
2022/12/13 07:23:55;;;;;;;17.15;8.73;;;;;;;3.55;82.54;96476.63;5057529;28;20098;-60
2022/12/13 07:26:22;;;;;;;17.70;10.20;;;;;;;4.01;81.60;96550.22;5061826;28;20050;-62
2022/12/13 07:28:49;;;;;;;11.82;6.13;;;;;;;3.67;77.60;96517.72;5060584;28;20064;-61
2022/12/13 07:31:21;;;;;;;9.52;5.18;;;;;;;3.81;77.28;96540.09;5061237;28;20049;-58
2022/12/13 07:33:49;;;;;;;11.05;5.18;;;;;;;3.81;77.06;96537.38;5063074;28;20171;-58
2022/12/13 07:36:18;;;;;;;17.00;8.27;;;;;;;3.58;78.89;96519.75;5061539;28;20131;-57
2022/12/13 07:38:53;;;;;;;7.90;4.47;;;;;;;4.09;76.13;96563.00;5062101;28;20139;-59
2022/12/13 07:41:22;;;;;;;17.90;8.45;;;;;;;4.13;75.67;96566.66;5062006;28;20052;-60
2022/12/13 07:43:51;;;;;;;18.00;8.13;;;;;;;3.96;78.68;96531.25;5061708;28;20313;-57
2022/12/13 07:46:22;;;;;;;8.65;4.68;;;;;;;2.45;75.44;96312.50;5059370;28;20055;-61
2022/12/13 07:49:03;;;;;;;20.00;14.77;;;;;;;4.35;75.65;96577.19;5061810;28;20048;-60
2022/12/13 07:51:34;;;;;;;12.68;8.00;;;;;;;3.92;74.86;96527.56;5056524;28;20051;-58
2022/12/13 07:54:02;;;;;;;16.58;9.07;;;;;;;4.33;75.99;96563.00;5060527;28;20079;-57
2022/12/13 07:56:32;;;;;;;15.85;9.75;;;;;;;4.44;75.68;96566.91;5059640;28;20151;-66
2022/12/13 07:58:59;;;;;;;13.27;8.52;;;;;;;3.80;74.61;96461.81;5060681;28;20046;-62
2022/12/13 08:01:26;;;;;;;11.80;7.75;;;;;;;2.28;74.50;96216.25;5054124;28;20136;-63
2022/12/13 08:03:54;;;;;;;12.73;7.88;;;;;;;4.60;76.36;96556.84;5059223;28;20119;-60
2022/12/13 08:06:20;;;;;;;9.00;5.93;;;;;;;4.68;73.49;96572.38;5060742;28;20418;-59
2022/12/13 08:08:49;;;;;;;9.38;4.53;;;;;;;4.86;74.11;96585.84;5061369;28;20130;-60
2022/12/13 08:11:16;;;;;;;6.65;3.97;;;;;;;4.55;74.31;96537.88;5059751;28;20048;-58
2022/12/13 08:13:43;;;;;;;10.82;5.65;;;;;;;4.68;74.50;96594.31;5061061;28;20300;-59
2022/12/13 08:16:11;;;;;;;6.60;3.30;;;;;;;3.83;74.42;96455.66;5060186;28;20106;-62
2022/12/13 08:18:58;;;;;;;6.22;3.88;;;;;;;3.82;71.42;96437.63;5060899;28;20431;-57
2022/12/13 08:21:32;;;;;;;10.15;6.97;;;;;;;4.98;72.61;96607.81;5058347;28;20135;-56
2022/12/13 08:24:19;;;;;;;9.00;5.25;;;;;;;4.92;72.92;96599.00;5040202;28;20037;-59
2022/12/13 08:27:10;;;;;;;7.65;4.20;;;;;;;4.54;71.35;96549.19;5054822;28;20052;-57
2022/12/13 08:29:37;;;;;;;10.95;5.55;;;;;;;4.88;70.47;96611.00;5058381;28;20101;-60
2022/12/13 08:32:06;;;;;;;9.05;4.57;;;;;;;4.85;71.20;96607.03;5059615;28;20080;-57
2022/12/13 08:34:32;;;;;;;8.63;4.82;;;;;;;4.91;72.45;96610.31;5060432;28;20625;-57
2022/12/13 08:36:59;;;;;;;8.52;4.53;;;;;;;4.60;70.96;96551.34;5061048;28;20118;-59
2022/12/13 08:39:33;;;;;;;10.05;4.97;;;;;;;4.43;71.05;96568.06;5060045;28;20054;-58
2022/12/13 08:42:07;;;;;;;8.07;4.65;;;;;;;5.07;71.97;96608.47;5057705;28;20236;-60
2022/12/13 08:44:44;;;;;;;12.25;5.75;;;;;;;4.47;70.63;96519.59;5059579;28;20044;-59
2022/12/13 08:47:10;;;;;;;7.68;5.07;;;;;;;5.19;69.39;96602.94;5048023;28;20082;-59
2022/12/13 08:49:37;;;;;;;8.02;5.88;;;;;;;5.25;70.53;96607.06;5061139;28;20492;-59
2022/12/13 08:52:03;;;;;;;8.02;6.00;;;;;;;2.97;69.47;96236.97;5052622;28;20139;-63
2022/12/13 08:54:32;;;;;;;8.98;6.03;;;;;;;5.32;70.07;96560.59;5061654;28;20819;-57
2022/12/13 08:56:59;;;;;;;6.35;3.92;;;;;;;4.68;68.14;96462.66;5060585;28;20056;-62
2022/12/13 08:59:26;;;;;;;9.68;5.63;;;;;;;4.83;66.72;96454.84;5058802;28;20565;-59
2022/12/13 09:01:52;;;;;;;13.25;6.47;;;;;;;5.11;67.11;96527.81;5059930;28;20117;-60
2022/12/13 09:04:22;;;;;;;5.15;3.20;;;;;;;4.29;66.46;96392.16;5065378;28;20049;-59
2022/12/13 09:06:57;;;;;;;10.52;5.72;;;;;;;5.27;65.26;96541.63;5066390;28;20137;-57
2022/12/13 09:09:28;;;;;;;4.13;2.65;;;;;;;5.63;63.24;96601.91;5066282;28;20434;-57
2022/12/13 09:11:55;;;;;;;5.97;4.00;;;;;;;5.31;64.33;96575.47;5065180;28;20130;-59
2022/12/13 09:14:26;;;;;;;10.43;6.22;;;;;;;5.40;63.99;96595.34;5066029;28;20052;-58
2022/12/13 09:17:01;;;;;;;11.20;5.82;;;;;;;5.05;66.32;96577.81;5066087;28;20076;-60
2022/12/13 09:19:29;;;;;;;8.90;5.10;;;;;;;3.09;65.69;96228.00;5065740;28;20063;-60
2022/12/13 09:22:03;;;;;;;8.20;4.15;;;;;;;1.81;64.35;96018.41;5052882;28;20049;-59
2022/12/13 09:24:30;;;;;;;9.75;6.07;;;;;;;5.08;64.28;96486.56;5046036;28;20053;-60
2022/12/13 09:27:03;;;;;;;6.40;3.97;;;;;;;5.71;62.04;96578.97;5061688;28;20051;-58
2022/12/13 09:29:36;;;;;;;12.80;6.82;;;;;;;5.73;64.95;96576.69;5065312;28;20087;-60
2022/12/13 09:32:03;;;;;;;9.23;5.47;;;;;;;5.84;63.52;96572.31;5064415;28;20048;-59
2022/12/13 09:34:31;;;;;;;7.22;3.60;;;;;;;4.97;61.64;96433.31;5064177;28;20064;-59
2022/12/13 09:36:58;;;;;;;10.43;3.78;;;;;;;5.20;56.21;96459.06;5064812;28;20040;-59
2022/12/13 09:39:28;;;;;;;8.45;4.45;;;;;;;3.52;59.13;96241.88;5065584;28;20044;-61
2022/12/13 09:41:57;;;;;;;6.43;3.92;;;;;;;5.96;60.44;96559.31;5065450;28;20059;-59
2022/12/13 09:44:31;;;;;;;5.57;3.90;;;;;;;6.04;61.99;96560.28;5063763;28;20068;-58
2022/12/13 09:47:30;;;;;;;;;;;;;;;6.00;63.81;96549.22;5064559;28;20613;-57
2022/12/13 09:50:06;;;;;;;6.13;3.67;;;;;;;4.99;63.79;96431.03;5065255;28;19971;-59
2022/12/13 09:52:43;;;;;;;9.40;5.95;;;;;;;5.70;63.49;96538.94;5065711;28;20636;-55
2022/12/13 09:55:22;;;;;;;6.78;4.95;;;;;;;5.44;64.25;96502.88;5064141;28;20060;-60
2022/12/13 09:57:50;;;;;;;8.05;4.00;;;;;;;5.56;65.41;96527.56;5065331;28;20593;-60
2022/12/13 10:00:33;;;;;;;26.25;9.63;;;;;;;5.78;65.15;96521.47;5065029;28;20110;-60
2022/12/13 10:03:00;;;;;;;;;;;;;;;5.82;65.01;96522.38;5064735;28;20056;-57
2022/12/13 10:05:37;;;;;;;23.75;11.32;;;;;;;5.94;63.75;96516.84;5065461;28;19989;-58
2022/12/13 10:08:24;;;;;;;27.63;14.15;;;;;;;6.10;64.41;96518.44;5065814;28;20472;-60
2022/12/13 10:10:54;;;;;;;9.73;5.95;;;;;;;6.15;63.07;96506.38;5065628;28;20127;-57
2022/12/13 10:13:31;;;;;;;15.20;7.60;;;;;;;6.02;64.60;96496.63;5065064;28;20048;-57
2022/12/13 10:16:03;;;;;;;11.40;6.38;;;;;;;6.17;64.80;96509.56;5063020;28;20143;-56
2022/12/13 10:18:36;;;;;;;9.53;5.03;;;;;;;6.29;62.63;96495.75;5065351;28;20060;-58
2022/12/13 10:21:07;;;;;;;6.73;3.73;;;;;;;5.64;62.22;96435.94;5056323;28;20382;-60
2022/12/13 10:23:34;;;;;;;6.47;3.88;;;;;;;6.07;63.34;96427.63;5061094;28;20048;-59
2022/12/13 10:26:21;;;;;;;4.95;3.42;;;;;;;6.72;61.83;96500.28;5053920;28;20052;-56
2022/12/13 10:29:00;;;;;;;14.93;8.60;;;;;;;7.02;61.11;96493.88;5045004;28;20052;-57
2022/12/13 10:31:27;;;;;;;14.50;7.30;;;;;;;6.80;59.60;96439.53;5044747;28;20053;-60
2022/12/13 10:33:56;;;;;;;13.93;8.38;;;;;;;6.90;61.21;96499.53;5044723;28;20053;-61
2022/12/13 10:36:37;;;;;;;10.73;6.03;;;;;;;6.36;59.10;96379.56;5044782;28;20132;-61
2022/12/13 10:39:04;;;;;;;13.95;10.95;;;;;;;6.46;59.54;96407.34;5044839;28;20060;-62
2022/12/13 10:41:35;;;;;;;12.05;8.77;;;;;;;7.32;59.90;96496.84;5044915;28;20048;-56
2022/12/13 10:44:23;;;;;;;9.20;5.80;;;;;;;6.97;58.14;96428.09;5044712;28;20284;-57
2022/12/13 10:47:15;;;;;;;11.82;6.88;;;;;;;7.45;57.99;96481.78;5044726;28;20065;-58
2022/12/13 10:49:50;;;;;;;5.15;3.72;;;;;;;7.19;56.54;96443.88;5045404;28;20049;-62
2022/12/13 10:52:30;;;;;;;6.18;2.92;;;;;;;7.49;54.58;96511.00;5044246;28;20072;-58
2022/12/13 10:55:05;;;;;;;7.97;5.20;;;;;;;4.87;55.99;96077.16;5044457;28;20088;-59
2022/12/13 10:57:55;;;;;;;8.75;4.40;;;;;;;7.61;55.69;96497.09;5044204;28;20516;-62
2022/12/13 11:00:37;;;;;;;7.88;4.47;;;;;;;7.59;55.55;96493.88;5044491;28;20127;-59
2022/12/13 11:03:05;;;;;;;20.93;10.37;;;;;;;7.82;54.96;96490.38;5044115;28;20502;-61
2022/12/13 11:05:36;;;;;;;9.40;4.45;;;;;;;7.89;55.08;96485.78;5042887;28;20476;-61
2022/12/13 11:08:26;;;;;;;11.20;5.07;;;;;;;5.92;54.76;96178.34;5044214;28;20048;-62
2022/12/13 11:10:59;;;;;;;6.68;4.13;;;;;;;7.45;56.81;96488.09;5043695;28;20522;-61
2022/12/13 11:13:32;;;;;;;8.82;4.28;;;;;;;7.19;56.91;96427.34;5044288;28;20059;-58
2022/12/13 11:16:00;;;;;;;77.10;32.67;;;;;;;7.40;57.64;96485.63;5044282;28;20191;-57
2022/12/13 11:18:33;;;;;;;14.07;7.35;;;;;;;5.65;57.07;96179.31;5043840;28;20504;-61
2022/12/13 11:21:04;;;;;;;8.05;4.57;;;;;;;7.43;56.48;96460.09;5060239;28;20135;-58
2022/12/13 11:23:38;;;;;;;4.85;3.03;;;;;;;7.39;55.44;96428.94;5062983;28;20135;-60
2022/12/13 11:26:14;;;;;;;3.60;2.90;;;;;;;5.37;54.52;96058.69;5062737;28;20117;-57
2022/12/13 11:28:52;;;;;;;4.55;3.17;;;;;;;8.08;54.15;96454.59;5061623;28;20052;-56
2022/12/13 11:31:37;;;;;;;5.05;3.20;;;;;;;8.46;54.62;96468.25;5063265;28;20386;-62
2022/12/13 11:34:23;;;;;;;3.88;2.42;;;;;;;8.63;52.38;96463.00;5061214;28;20143;-61
2022/12/13 11:37:04;;;;;;;4.97;3.72;;;;;;;8.56;51.48;96459.34;5061482;28;20048;-61
2022/12/13 11:39:42;;;;;;;5.57;3.22;;;;;;;8.62;52.09;96457.84;5061852;28;20083;-61
2022/12/13 11:42:17;;;;;;;3.72;2.95;;;;;;;8.51;51.77;96454.13;5059764;28;20106;-59
2022/12/13 11:45:02;;;;;;;6.97;4.20;;;;;;;8.52;52.25;96444.72;5062777;28;20094;-57
2022/12/13 11:47:41;;;;;;;10.55;5.53;;;;;;;7.93;52.50;96375.53;5062501;28;20075;-62
2022/12/13 11:50:21;;;;;;;7.43;4.20;;;;;;;8.37;52.75;96457.47;5059776;28;20063;-64
2022/12/13 11:53:17;;;;;;;5.60;3.92;;;;;;;7.90;51.63;96404.66;5061916;28;20059;-58
2022/12/13 11:55:53;;;;;;;10.02;5.15;;;;;;;8.00;55.09;96461.16;5062191;28;20087;-59
2022/12/13 11:58:28;;;;;;;8.32;5.00;;;;;;;7.81;53.89;96456.47;5061940;28;20135;-59
2022/12/13 12:01:19;;;;;;;7.30;4.15;;;;;;;7.45;53.80;96377.88;5063352;28;20137;-61
2022/12/13 12:03:55;;;;;;;12.43;5.75;;;;;;;8.23;54.48;96456.44;5062795;28;20191;-59
2022/12/13 12:06:28;;;;;;;6.22;3.80;;;;;;;8.37;53.64;96440.94;5063284;28;20114;-61